Pagrindinis puslapis
METAR-TAF:

METAR-TAF

Oro uostai :

Varadero, Kuba

platuma: 23-08N, ilguma: 081-17W, Aukštis: 3 m

Dabartinis oras

Ataskaita buvo paskelbta 43 minutes, ne 09:50 UTC
Vėjas 4 kt iš Pietų/Pietryčių
Temperatūra 24°C
Drėgmė 94%
Slėgis 1012 hPa
Matomumas: 9000 m
Mažai debesys ne aukštis 3000 ft

METAR: MUVR 280950Z 15004KT 9000 FEW030 24/23 Q1012

Laikas: 06:33 (10:33 UTC)

Prognozė

Ataskaita buvo paskelbta 5 valandos ir 33 minutes, ne 05:00 UTC
Prognozė galioja nuo 28 metu 06 UTC su 29 metu 06 UTC
Vėjas 3 kt nuo kintamojo kryptimis
Matomumas: 9000 m
Išsisklaidę debesys ne aukštis 2000 ft
Tapsmas
nuo 28 metu 15 UTC su 28 metu 17 UTC
Vėjas 10 kt iš Pietų/Pietvakarių
Laikinai
nuo 29 metu 00 UTC su 29 metu 06 UTC
Matomumas: 5000 m
Išsisklaidę debesys ne aukštis 2000 ft, Liūtiniai kamuoliniai debesys.
Su prošvaistėmis ne aukštis 2000 ft
lietus

TAF: MUVR 280500Z 2806/2906 VRB03KT 9000 SCT020 BECMG 2815/2817 20010KT TEMPO 2900/2906 5000 SHRA SCT020CB BKN020

Orai ataskaitas ir orų prognozės (METAR, TAF).

turimą stotys yra geltonos ir raudonos taškus žemėlapyje.

Perkelti pele per norėdami pamatyti stoties vardą.

Tada spustelėkite, norėdami matyti oro stebėjimo ir prognozės.

Norėdami pakeisti žemėlapį: spustelėkite ant žalios mygtukų su juodo kryžiaus žemyn,; žalią mygtuką su brūkšneliu, jei norite nutolinti; arba žalių rodyklių gretimoms žemėlapius.


METAR-TAF: